Time;durP1;ratioP1;P1;durP2;ratioP2;P2;SDS_P1;SDS_P2;PMS_P1;PMS_P2;Temp;Humidity;BMP_temperature;BMP_pressure;BME280_temperature;BME280_humidity;BME280_pressure;Samples;Min_cycle;Max_cycle;Signal;HPM_P1;HPM_P2
2022/08/03 00:00:41;;;;;;;2.75;1.13;;;;;;;19.07;75.42;101342.63;2104852;28;26680;-75
2022/08/03 00:01:43;;;;;;;2.20;1.20;;;;;;;19.05;75.22;101339.13;2104864;28;24376;-74
2022/08/03 00:02:45;;;;;;;2.47;1.27;;;;;;;19.03;75.25;101341.03;2104685;28;20118;-75
2022/08/03 00:03:47;;;;;;;4.03;1.10;;;;;;;19.00;75.38;101333.06;2105052;28;26000;-75
2022/08/03 00:04:51;;;;;;;1.90;1.45;;;;;;;19.00;75.49;101335.78;2105434;28;20914;-75
2022/08/03 00:05:53;;;;;;;2.53;1.40;;;;;;;18.97;75.73;101345.91;2104758;28;20044;-75
2022/08/03 00:07:04;;;;;;;1.50;1.30;;;;;;;18.94;76.02;101341.53;2104240;28;32935;-75
2022/08/03 00:08:06;;;;;;;2.40;1.50;;;;;;;18.93;76.71;101345.19;2105313;28;23651;-75
2022/08/03 00:09:08;;;;;;;2.10;1.35;;;;;;;18.91;76.26;101343.53;2105089;28;21081;-75
2022/08/03 00:10:12;;;;;;;2.72;1.92;;;;;;;18.89;76.18;101346.31;2104173;28;31916;-75
2022/08/03 00:11:14;;;;;;;1.50;1.40;;;;;;;18.89;76.24;101349.03;2104700;28;20936;-75
2022/08/03 00:12:16;;;;;;;2.28;1.55;;;;;;;18.87;76.28;101345.50;2104520;28;32924;-75
2022/08/03 00:13:18;;;;;;;2.20;1.50;;;;;;;18.86;76.01;101341.03;2104200;28;31666;-75
2022/08/03 00:14:20;;;;;;;3.30;1.90;;;;;;;18.84;75.88;101345.66;2104685;28;24934;-75
2022/08/03 00:15:22;;;;;;;3.42;1.58;;;;;;;18.81;76.26;101340.38;2104210;28;21002;-75
2022/08/03 00:16:25;;;;;;;1.88;1.17;;;;;;;18.79;76.67;101347.69;2105784;28;20105;-75
2022/08/03 00:17:26;;;;;;;2.00;1.42;;;;;;;18.77;76.42;101344.19;2104660;28;23446;-75
2022/08/03 00:18:28;;;;;;;2.80;1.30;;;;;;;18.73;76.38;101346.19;2104467;28;34752;-75
2022/08/03 00:19:30;;;;;;;2.72;1.50;;;;;;;18.72;76.51;101343.53;2104574;28;20050;-75
2022/08/03 00:20:32;;;;;;;2.53;1.35;;;;;;;18.68;76.73;101349.13;2105163;28;21360;-75
2022/08/03 00:21:36;;;;;;;4.20;1.60;;;;;;;18.65;76.44;101346.56;2104849;28;20841;-75
2022/08/03 00:22:38;;;;;;;2.88;1.38;;;;;;;18.62;76.91;101349.44;2105710;28;20040;-75
2022/08/03 00:23:40;;;;;;;2.15;1.45;;;;;;;18.61;76.73;101344.97;2105090;28;23646;-75
2022/08/03 00:24:52;;;;;;;3.28;1.67;;;;;;;18.58;76.79;101349.69;2105211;28;30719;-75
2022/08/03 00:25:54;;;;;;;3.67;1.83;;;;;;;18.56;77.01;101348.88;2105034;28;20041;-75
2022/08/03 00:26:56;;;;;;;2.58;1.70;;;;;;;18.54;76.79;101343.53;2104259;28;26346;-76
2022/08/03 00:27:58;;;;;;;2.67;1.63;;;;;;;18.53;77.05;101349.91;2096451;28;20091;-75
2022/08/03 00:29:00;;;;;;;2.58;1.60;;;;;;;18.53;77.56;101349.91;2105481;28;22401;-71
2022/08/03 00:30:05;;;;;;;3.10;1.60;;;;;;;18.51;77.40;101351.81;2103015;28;41191;-73
2022/08/03 00:31:07;;;;;;;2.55;1.23;;;;;;;18.49;77.44;101351.00;2104531;28;20105;-67
2022/08/03 00:32:09;;;;;;;1.48;1.30;;;;;;;18.47;77.26;101344.78;2105391;28;22093;-72
2022/08/03 00:33:13;;;;;;;2.13;1.27;;;;;;;18.43;77.20;101351.28;2104445;28;23071;-73
2022/08/03 00:34:15;;;;;;;3.65;1.10;;;;;;;18.40;77.56;101343.34;2103984;28;27178;-72
2022/08/03 00:35:17;;;;;;;2.92;1.42;;;;;;;18.37;77.97;101346.19;2104881;28;30051;-68
2022/08/03 00:36:30;;;;;;;2.53;1.55;;;;;;;18.35;77.87;101348.09;2104171;28;22891;-76
2022/08/03 00:37:32;;;;;;;2.63;1.52;;;;;;;18.31;78.33;101348.25;2104224;28;32854;-69
2022/08/03 00:38:42;;;;;;;3.75;1.50;;;;;;;18.30;78.36;101354.63;2104919;28;20048;-69
2022/08/03 00:39:46;;;;;;;3.97;1.50;;;;;;;18.28;77.96;101351.09;2104876;28;32768;-72
2022/08/03 00:40:48;;;;;;;1.77;1.23;;;;;;;18.24;78.25;101341.38;2104827;28;23553;-75
2022/08/03 00:41:50;;;;;;;2.65;1.23;;;;;;;18.22;78.07;101340.56;2105240;28;20910;-80
2022/08/03 00:42:58;;;;;;;2.15;1.60;;;;;;;18.19;78.60;101350.69;2104246;28;40863;-70
2022/08/03 00:44:01;;;;;;;2.53;1.40;;;;;;;18.17;78.83;101342.63;2105624;28;20262;-75
2022/08/03 00:45:06;;;;;;;2.13;1.50;;;;;;;18.13;78.93;101341.00;2103889;28;34105;-75
2022/08/03 00:46:08;;;;;;;1.90;1.65;;;;;;;18.11;78.81;101349.22;2104171;28;20037;-75
2022/08/03 00:47:10;;;;;;;1.52;1.33;;;;;;;18.09;79.18;101347.53;2104840;28;25376;-76
2022/08/03 00:48:12;;;;;;;5.07;1.67;;;;;;;18.07;79.36;101342.19;2104530;28;33045;-76
2022/08/03 00:49:20;;;;;;;2.13;1.35;;;;;;;18.06;79.50;101345.84;2105012;28;27181;-76
2022/08/03 00:50:27;;;;;;;5.13;1.48;;;;;;;18.05;79.44;101348.63;2104867;28;29435;-76
2022/08/03 00:51:29;;;;;;;2.35;1.60;;;;;;;18.04;79.26;101347.75;2104226;28;29653;-75
2022/08/03 00:52:30;;;;;;;1.88;1.25;;;;;;;18.03;79.35;101350.53;2104809;28;20113;-76
2022/08/03 00:53:34;;;;;;;2.63;1.70;;;;;;;18.02;79.46;101346.94;2103863;28;29003;-76
2022/08/03 00:54:37;;;;;;;3.10;1.80;;;;;;;18.00;79.90;101345.25;2096145;28;35164;-76
2022/08/03 00:55:43;;;;;;;2.50;1.70;;;;;;;17.98;79.71;101339.94;2104051;28;29667;-75
2022/08/03 00:56:45;;;;;;;4.07;1.67;;;;;;;17.97;79.74;101350.84;2103964;28;30690;-76
2022/08/03 00:58:05;;;;;;;1.63;1.48;;;;;;;17.95;79.87;101350.91;2104376;28;30074;-76
2022/08/03 00:59:09;;;;;;;2.38;1.40;;;;;;;17.92;79.86;101346.50;2104141;28;28437;-76
2022/08/03 01:00:16;;;;;;;2.63;1.42;;;;;;;17.93;79.76;101348.25;2104912;28;20707;-75
2022/08/03 01:01:18;;;;;;;1.38;1.25;;;;;;;17.91;79.23;101342.03;2103910;28;31768;-76
2022/08/03 01:02:20;;;;;;;3.38;1.63;;;;;;;17.89;79.52;101337.63;2104100;28;31025;-76
2022/08/03 01:03:24;;;;;;;2.08;1.40;;;;;;;17.85;79.69;101338.69;2103808;28;30987;-76
2022/08/03 01:04:26;;;;;;;5.18;1.63;;;;;;;17.83;79.85;101335.19;2104185;28;34054;-76
2022/08/03 01:05:29;;;;;;;3.03;1.63;;;;;;;17.80;79.89;101336.22;2104768;28;23556;-76
2022/08/03 01:07:11;;;;;;;3.72;1.45;;;;;;;17.78;80.17;101338.09;2104158;28;29730;-75
2022/08/03 01:08:42;;;;;;;3.33;1.40;;;;;;;17.77;79.70;101336.34;2101282;28;26843;-76
2022/08/03 01:10:28;;;;;;;3.22;1.50;;;;;;;17.74;79.96;101339.19;2102729;28;20875;-76
2022/08/03 01:12:06;;;;;;;1.83;1.67;;;;;;;17.74;79.70;101336.50;2093125;28;33163;-76
2022/08/03 01:13:16;;;;;;;2.08;1.65;;;;;;;17.72;79.08;101335.69;2105038;28;32569;-76
2022/08/03 01:15:01;;;;;;;1.92;1.73;;;;;;;17.69;79.64;101338.53;2105300;28;20047;-76
2022/08/03 01:16:20;;;;;;;2.75;1.75;;;;;;;17.67;79.52;101335.88;2104660;28;31315;-75
2022/08/03 01:17:43;;;;;;;2.00;1.40;;;;;;;17.66;79.63;101344.13;2103832;28;28331;-76
2022/08/03 01:19:12;;;;;;;1.80;1.40;;;;;;;17.63;80.46;101344.25;2103956;28;33615;-76
2022/08/03 01:20:17;;;;;;;2.20;1.30;;;;;;;17.63;80.77;101336.13;2105049;28;20174;-75
2022/08/03 01:21:39;;;;;;;2.00;1.50;;;;;;;17.66;80.53;101336.00;2104301;28;33999;-75
2022/08/03 01:23:37;;;;;;;3.38;2.20;;;;;;;17.64;80.25;101345.97;2103755;28;32663;-76
2022/08/03 01:25:04;;;;;;;2.95;1.77;;;;;;;17.61;80.44;101328.06;2086425;28;28362;-75
2022/08/03 01:26:22;;;;;;;1.67;1.35;;;;;;;17.61;80.71;101338.91;2094558;28;25892;-75
2022/08/03 01:28:01;;;;;;;1.67;1.58;;;;;;;17.60;81.02;101339.81;2104868;28;26425;-76
2022/08/03 01:29:43;;;;;;;2.75;1.63;;;;;;;17.55;80.86;101331.94;2088085;28;33063;-74
2022/08/03 01:30:48;;;;;;;2.33;1.42;;;;;;;17.55;81.01;101337.34;2104540;28;25214;-75
2022/08/03 01:32:04;;;;;;;2.05;1.70;;;;;;;17.52;80.98;101337.47;2104733;28;27206;-76
2022/08/03 01:33:35;;;;;;;2.00;1.63;;;;;;;17.49;80.66;101332.19;2104482;28;20794;-75
2022/08/03 01:34:45;;;;;;;2.67;1.60;;;;;;;17.48;80.90;101333.16;2103554;28;30075;-75
2022/08/03 01:35:57;;;;;;;;;;;;;;;17.45;81.26;101333.28;2105488;28;20032;-75
2022/08/03 01:37:03;;;;;;;2.42;1.63;;;;;;;17.44;81.39;101333.34;2104258;28;33594;-76
2022/08/03 01:38:22;;;;;;;5.53;1.75;;;;;;;17.41;81.18;101334.41;2105304;28;20121;-75
2022/08/03 01:39:27;;;;;;;2.50;1.55;;;;;;;17.39;81.06;101335.38;2103891;28;25454;-76
2022/08/03 01:40:33;;;;;;;2.83;1.48;;;;;;;17.36;81.00;101331.88;2104163;28;29308;-75
2022/08/03 01:41:46;;;;;;;5.05;1.80;;;;;;;17.35;81.25;101334.66;2104054;28;25203;-76
2022/08/03 01:42:50;;;;;;;1.92;1.73;;;;;;;17.31;81.55;101339.31;2095383;28;28042;-76
2022/08/03 01:43:54;;;;;;;2.85;1.45;;;;;;;17.29;81.54;101333.09;2097864;28;20037;-75
2022/08/03 01:45:17;;;;;;;3.38;1.80;;;;;;;17.28;81.81;101335.88;2095958;28;20045;-76
2022/08/03 01:46:22;;;;;;;2.83;2.00;;;;;;;17.28;82.06;101330.47;2099395;28;28962;-75
2022/08/03 01:47:26;;;;;;;3.40;2.10;;;;;;;17.29;81.57;101326.81;2095166;28;28425;-75
2022/08/03 01:48:30;;;;;;;5.18;2.28;;;;;;;17.29;81.83;101329.53;2097237;28;27912;-76
2022/08/03 01:49:43;;;;;;;4.30;1.90;;;;;;;17.31;81.47;101333.03;2103464;28;35788;-76
2022/08/03 01:50:47;;;;;;;3.60;1.80;;;;;;;17.31;81.68;101330.34;2097888;28;24695;-75
2022/08/03 01:51:51;;;;;;;2.15;1.90;;;;;;;17.30;81.28;101328.56;2103695;28;26659;-75
2022/08/03 01:52:59;;;;;;;4.47;2.33;;;;;;;17.29;81.60;101330.41;2104248;28;23029;-74
2022/08/03 01:54:07;;;;;;;3.05;1.80;;;;;;;17.29;81.72;101327.69;2104431;28;20041;-74
2022/08/03 01:55:12;;;;;;;2.45;2.08;;;;;;;17.28;81.44;101323.25;2103430;28;37412;-74
2022/08/03 01:56:15;;;;;;;5.65;1.98;;;;;;;17.27;81.51;101328.72;2104244;28;26196;-74
2022/08/03 01:57:18;;;;;;;3.03;1.90;;;;;;;17.24;81.71;101332.44;2104167;28;22742;-74
2022/08/03 01:58:23;;;;;;;2.53;2.17;;;;;;;17.23;82.21;101327.06;2105871;28;21137;-74
2022/08/03 01:59:27;;;;;;;4.63;2.20;;;;;;;17.22;82.14;101325.34;2104807;28;32201;-74
2022/08/03 02:00:31;;;;;;;3.05;1.95;;;;;;;17.19;82.22;101326.34;2105242;28;29811;-74
2022/08/03 02:01:36;;;;;;;4.60;2.08;;;;;;;17.17;82.55;101328.22;2104924;28;30566;-74
2022/08/03 02:02:58;;;;;;;2.50;1.88;;;;;;;17.16;82.64;101324.66;2105593;28;20048;-74
2022/08/03 02:04:01;;;;;;;3.50;2.22;;;;;;;17.12;82.94;101317.63;2091827;28;21336;-74
2022/08/03 02:05:08;;;;;;;3.00;2.42;;;;;;;17.08;82.92;101316.00;2097092;28;33771;-74
2022/08/03 02:06:20;;;;;;;3.08;2.50;;;;;;;17.06;82.70;101317.88;2105684;28;20830;-74
2022/08/03 02:07:45;;;;;;;2.47;2.22;;;;;;;17.04;82.83;101317.06;2106114;28;20047;-75
2022/08/03 02:08:48;;;;;;;3.63;2.15;;;;;;;17.02;83.05;101316.28;2105240;28;36101;-74
2022/08/03 02:09:55;;;;;;;2.25;1.80;;;;;;;17.02;83.60;101315.41;2105456;28;36480;-74
2022/08/03 02:10:58;;;;;;;3.22;2.00;;;;;;;17.00;83.51;101314.59;2105934;28;31213;-73
2022/08/03 02:12:01;;;;;;;2.83;2.17;;;;;;;17.00;83.43;101318.16;2105333;28;35872;-74
2022/08/03 02:13:06;;;;;;;2.63;2.10;;;;;;;16.99;83.62;101316.41;2106085;28;24572;-73
2022/08/03 02:14:09;;;;;;;2.08;1.98;;;;;;;16.97;83.60;101313.75;2104577;28;33660;-74
2022/08/03 02:15:14;;;;;;;3.13;2.38;;;;;;;17.01;84.14;101314.50;2105684;28;20066;-74
2022/08/03 02:16:17;;;;;;;3.13;2.30;;;;;;;17.01;84.52;101319.91;2105361;28;20105;-74
2022/08/03 02:17:23;;;;;;;2.63;2.38;;;;;;;17.02;84.66;101310.00;2104924;28;33320;-74
2022/08/03 02:18:41;;;;;;;2.92;2.38;;;;;;;16.98;84.23;101314.66;2105780;28;20047;-75
2022/08/03 02:19:44;;;;;;;2.40;2.05;;;;;;;16.95;83.94;101312.94;2104776;28;34356;-74
2022/08/03 02:20:46;;;;;;;3.22;2.92;;;;;;;16.94;84.10;101313.91;2105066;28;27312;-75
2022/08/03 02:21:50;;;;;;;3.00;2.30;;;;;;;16.93;84.27;101313.97;2096460;28;29707;-75
2022/08/03 02:22:58;;;;;;;4.68;3.38;;;;;;;16.92;83.81;101307.69;2090539;28;33584;-74
2022/08/03 02:24:05;;;;;;;3.05;2.60;;;;;;;16.92;84.57;101306.78;2098800;28;20695;-75
2022/08/03 02:25:10;;;;;;;3.25;2.85;;;;;;;16.89;84.32;101310.53;2104571;28;27182;-75
2022/08/03 02:26:18;;;;;;;2.22;2.03;;;;;;;16.90;84.21;101311.38;2104914;28;26660;-74
2022/08/03 02:27:25;;;;;;;4.00;3.03;;;;;;;16.91;83.85;101307.75;2104860;28;26402;-74
2022/08/03 02:28:36;;;;;;;3.85;2.97;;;;;;;16.89;84.00;101313.22;2105508;28;28769;-75
2022/08/03 02:29:40;;;;;;;4.05;2.80;;;;;;;16.86;83.89;101307.94;2105378;28;27414;-73
2022/08/03 02:30:45;;;;;;;2.92;2.72;;;;;;;16.85;83.78;101302.59;2104420;28;38854;-75
2022/08/03 02:31:49;;;;;;;2.88;2.58;;;;;;;16.83;84.37;101308.06;2105650;28;20185;-74
2022/08/03 02:32:56;;;;;;;4.20;3.10;;;;;;;16.86;84.21;101304.38;2104792;28;27700;-75
2022/08/03 02:34:07;;;;;;;4.40;3.22;;;;;;;16.84;84.85;101308.97;2105279;28;34632;-75
2022/08/03 02:35:14;;;;;;;5.53;3.03;;;;;;;16.82;84.40;101305.41;2106048;28;20092;-75
2022/08/03 02:36:20;;;;;;;3.97;2.75;;;;;;;16.82;84.98;101302.72;2106092;28;28881;-74
2022/08/03 02:37:27;;;;;;;3.08;2.70;;;;;;;16.79;84.64;101304.56;2104229;28;24897;-74
2022/08/03 02:38:37;;;;;;;2.95;2.75;;;;;;;16.79;84.54;101314.53;2105346;28;20581;-75
2022/08/03 02:39:41;;;;;;;4.30;2.80;;;;;;;16.76;84.90;101306.53;2104884;28;27352;-74
2022/08/03 02:40:48;;;;;;;3.72;2.90;;;;;;;16.79;85.21;101304.56;2105298;28;26365;-76
2022/08/03 02:41:54;;;;;;;4.57;3.47;;;;;;;16.78;84.96;101315.50;2104769;28;33219;-75
2022/08/03 02:43:02;;;;;;;3.65;3.33;;;;;;;16.76;84.57;101309.25;2097566;28;24971;-74
2022/08/03 02:44:09;;;;;;;3.90;3.50;;;;;;;16.74;84.68;101298.53;2097919;28;28150;-73
2022/08/03 02:45:14;;;;;;;2.97;2.67;;;;;;;16.73;84.69;101296.75;2097907;28;31437;-74
2022/08/03 02:46:21;;;;;;;5.15;3.58;;;;;;;16.73;84.27;101304.00;2104846;28;27998;-74
2022/08/03 02:47:26;;;;;;;4.47;2.88;;;;;;;16.71;84.35;101298.63;2104821;28;36564;-74
2022/08/03 02:48:34;;;;;;;5.30;3.03;;;;;;;16.69;84.46;101305.03;2104743;28;29328;-74
2022/08/03 02:52:25;;;;;;;4.60;3.30;;;;;;;16.68;84.64;101304.16;1153035;23;20433;-73
2022/08/03 02:53:29;;;;;;;3.42;3.10;;;;;;;16.69;84.87;101302.34;2051326;28;20078;-73
2022/08/03 02:54:33;;;;;;;4.45;3.58;;;;;;;16.69;85.09;101303.25;2032507;29;20044;-74
2022/08/03 02:55:35;;;;;;;5.88;3.40;;;;;;;16.69;85.05;101308.66;2033437;28;20033;-74
2022/08/03 02:56:36;;;;;;;4.43;3.38;;;;;;;16.70;84.69;101309.53;2032213;29;20931;-74
2022/08/03 02:57:38;;;;;;;5.95;3.95;;;;;;;16.71;85.41;101306.75;2032090;28;20850;-74
2022/08/03 02:58:42;;;;;;;3.90;3.58;;;;;;;16.73;84.88;101302.16;2032404;29;20167;-74
2022/08/03 02:59:44;;;;;;;4.03;3.65;;;;;;;16.72;85.09;101300.38;2024803;29;20052;-74
2022/08/03 03:00:47;;;;;;;6.93;4.13;;;;;;;16.71;84.94;101309.47;2040652;28;20056;-72
2022/08/03 03:01:48;;;;;;;5.05;3.67;;;;;;;16.70;84.66;101307.69;2040504;28;20139;-74
2022/08/03 03:02:50;;;;;;;3.83;3.00;;;;;;;16.68;85.17;101312.28;2032377;29;20112;-73
2022/08/03 03:03:53;;;;;;;3.90;3.13;;;;;;;16.68;84.77;101306.88;2032387;28;20044;-73
2022/08/03 03:04:55;;;;;;;4.95;3.85;;;;;;;16.67;85.13;101307.84;2040401;28;20050;-72
2022/08/03 03:05:56;;;;;;;4.32;3.38;;;;;;;16.68;85.81;101306.00;2040020;28;20036;-72
2022/08/03 03:06:58;;;;;;;4.43;4.00;;;;;;;16.67;86.00;101305.13;2047974;28;20231;-73
2022/08/03 03:07:59;;;;;;;4.30;3.85;;;;;;;16.67;86.31;101298.81;2039661;29;20055;-72
2022/08/03 03:09:00;;;;;;;9.18;4.07;;;;;;;16.67;86.26;101302.44;2031649;28;20043;-71
2022/08/03 03:10:06;;;;;;;8.13;3.85;;;;;;;16.66;86.08;101300.66;2032058;29;20044;-72
2022/08/03 03:11:07;;;;;;;3.92;3.63;;;;;;;16.64;85.97;101297.16;2025649;29;20863;-71
2022/08/03 03:12:11;;;;;;;5.10;3.53;;;;;;;16.63;85.33;101300.78;2032876;28;20120;-72
2022/08/03 03:13:14;;;;;;;3.83;3.38;;;;;;;16.60;85.40;101293.69;2031997;29;20048;-73
2022/08/03 03:14:17;;;;;;;5.45;3.97;;;;;;;16.60;85.88;101290.13;2033060;28;20949;-74
2022/08/03 03:15:18;;;;;;;5.88;4.20;;;;;;;16.60;85.97;101292.81;2032001;29;20044;-75
2022/08/03 03:16:20;;;;;;;3.53;3.22;;;;;;;16.57;86.33;101295.66;2032517;29;20548;-72
2022/08/03 03:17:22;;;;;;;6.95;4.20;;;;;;;16.56;85.90;101297.47;2032289;29;20135;-71
2022/08/03 03:18:24;;;;;;;4.40;3.75;;;;;;;16.54;85.94;101298.47;2032383;28;20167;-73
2022/08/03 03:19:25;;;;;;;6.53;4.10;;;;;;;16.54;86.89;101306.56;2040043;28;20029;-74
2022/08/03 03:20:27;;;;;;;5.35;4.20;;;;;;;16.52;86.49;101295.81;2039466;28;20052;-74
2022/08/03 03:21:30;;;;;;;5.70;4.38;;;;;;;16.50;86.64;101299.56;2032196;29;20369;-74
2022/08/03 03:22:33;;;;;;;5.30;3.95;;;;;;;16.48;86.55;101298.75;2032901;28;20844;-74
2022/08/03 03:23:37;;;;;;;6.57;4.32;;;;;;;16.46;86.41;101300.63;2034848;29;20053;-76
2022/08/03 03:24:40;;;;;;;4.57;3.33;;;;;;;16.44;86.64;101302.50;2033410;28;20078;-75
2022/08/03 03:25:42;;;;;;;4.22;3.83;;;;;;;16.41;86.67;101301.69;2032129;29;20089;-73
2022/08/03 03:26:43;;;;;;;5.10;4.40;;;;;;;16.41;86.76;101304.38;2025068;29;20036;-72
2022/08/03 03:27:45;;;;;;;3.85;3.50;;;;;;;16.39;87.24;101302.69;2032142;29;20503;-74
2022/08/03 03:28:47;;;;;;;4.32;3.90;;;;;;;16.38;87.16;101304.53;2032265;28;20041;-72
2022/08/03 03:29:50;;;;;;;4.53;4.13;;;;;;;16.39;87.24;101306.28;2032396;29;20048;-74
2022/08/03 03:30:52;;;;;;;5.07;4.32;;;;;;;16.37;87.15;101301.88;2032151;29;20060;-72
2022/08/03 03:31:52;;;;;;;5.50;4.00;;;;;;;16.36;87.18;101298.28;2031528;29;20909;-72
2022/08/03 03:32:54;;;;;;;4.82;4.25;;;;;;;16.37;86.89;101301.88;2039936;29;20036;-72
2022/08/03 03:33:58;;;;;;;6.45;4.68;;;;;;;16.36;86.94;101303.69;2031884;29;20049;-72
2022/08/03 03:35:03;;;;;;;5.18;4.68;;;;;;;16.36;87.10;101301.00;2033006;28;20052;-74
2022/08/03 03:36:06;;;;;;;7.85;4.72;;;;;;;16.35;87.54;101301.94;2040374;28;20160;-72
2022/08/03 03:37:06;;;;;;;6.32;4.05;;;;;;;16.35;87.52;101299.25;2047842;28;20231;-73
2022/08/03 03:38:10;;;;;;;5.20;4.25;;;;;;;16.33;87.11;101302.94;2047668;28;20859;-73
2022/08/03 03:39:13;;;;;;;4.30;3.90;;;;;;;16.31;87.67;101305.72;2047828;28;20041;-73
2022/08/03 03:40:14;;;;;;;6.07;3.83;;;;;;;16.30;87.72;101303.97;2039492;29;20036;-72
2022/08/03 03:41:18;;;;;;;5.10;4.60;;;;;;;16.31;87.92;101300.31;2032711;28;20033;-72
2022/08/03 03:42:19;;;;;;;5.20;4.38;;;;;;;16.32;87.98;101299.38;2040216;28;20038;-74
2022/08/03 03:43:22;;;;;;;4.55;4.15;;;;;;;16.33;87.86;101297.53;2039745;28;20052;-73
2022/08/03 03:44:27;;;;;;;6.30;4.93;;;;;;;16.34;87.82;101297.47;2040269;28;20036;-72
2022/08/03 03:45:30;;;;;;;5.82;5.32;;;;;;;16.35;87.65;101292.97;2040247;28;20044;-72
2022/08/03 03:46:31;;;;;;;6.50;4.68;;;;;;;16.36;87.48;101295.59;2039650;29;20908;-73
2022/08/03 03:47:34;;;;;;;5.40;4.72;;;;;;;16.36;87.16;101295.59;2039699;28;20048;-74
2022/08/03 03:48:35;;;;;;;5.97;5.22;;;;;;;16.38;88.08;101291.03;2047500;28;20187;-72
2022/08/03 03:49:38;;;;;;;5.75;4.95;;;;;;;16.36;86.96;101287.47;2039815;29;20051;-73
2022/08/03 03:50:42;;;;;;;5.93;5.13;;;;;;;16.36;87.12;101292.88;2040025;28;20075;-71
2022/08/03 03:51:43;;;;;;;5.53;5.03;;;;;;;16.37;87.51;101293.78;2040283;28;20040;-74
2022/08/03 03:52:43;;;;;;;5.43;4.53;;;;;;;16.34;87.19;101292.06;2047018;28;20048;-74
2022/08/03 03:53:58;;;;;;;5.10;4.47;;;;;;;16.35;87.30;101284.88;2039761;28;22200;-73
2022/08/03 03:55:00;;;;;;;5.15;4.70;;;;;;;16.33;87.18;101284.94;2041484;28;25624;-74
2022/08/03 03:56:02;;;;;;;5.95;4.28;;;;;;;16.34;87.06;101283.97;2047288;28;30522;-73
2022/08/03 03:57:04;;;;;;;7.75;5.28;;;;;;;16.34;87.29;101285.78;2048536;28;29729;-74
2022/08/03 03:58:07;;;;;;;5.22;4.78;;;;;;;16.33;87.23;101284.94;2047784;28;26559;-73
2022/08/03 03:59:08;;;;;;;7.97;5.85;;;;;;;16.36;87.35;101282.06;2054616;28;34222;-74
2022/08/03 04:00:13;;;;;;;6.85;5.03;;;;;;;16.39;86.94;101289.19;2046410;28;23270;-74
2022/08/03 04:01:16;;;;;;;6.97;4.53;;;;;;;16.41;86.65;101287.31;2046998;28;20055;-74
2022/08/03 04:02:18;;;;;;;5.05;4.63;;;;;;;16.40;86.75;101286.44;2046988;28;20042;-73
2022/08/03 04:03:19;;;;;;;6.10;5.22;;;;;;;16.42;86.97;101279.13;2047015;28;30366;-74
2022/08/03 04:11:26;;;;;;;6.05;4.13;;;;;;;16.55;85.63;101284.03;2045612;28;34491;-74
2022/08/03 04:12:35;;;;;;;4.95;3.67;;;;;;;16.59;85.89;101280.25;2047073;28;22768;-74
2022/08/03 04:14:06;;;;;;;5.40;4.90;;;;;;;16.63;85.94;101289.09;2038499;28;22136;-73
2022/08/03 04:15:12;;;;;;;7.82;4.95;;;;;;;16.66;85.76;101281.72;2038202;28;29208;-74
2022/08/03 04:16:17;;;;;;;4.88;4.35;;;;;;;16.70;85.74;101280.66;2041943;28;30914;-73
2022/08/03 04:17:21;;;;;;;6.00;4.40;;;;;;;16.74;85.81;101279.59;2031817;28;33583;-74
2022/08/03 04:18:25;;;;;;;6.57;5.13;;;;;;;16.78;85.15;101281.22;2039412;28;20107;-74
2022/08/03 04:19:42;;;;;;;6.50;4.95;;;;;;;16.82;85.53;101286.50;2038388;28;23917;-74
2022/08/03 04:20:47;;;;;;;5.88;4.50;;;;;;;16.84;85.43;101279.22;2040473;28;29020;-74
2022/08/03 04:21:53;;;;;;;6.35;4.68;;;;;;;16.88;85.35;101280.84;2046551;28;23726;-74
2022/08/03 04:23:00;;;;;;;5.60;4.82;;;;;;;16.91;84.70;101276.16;2047163;28;27833;-74
2022/08/03 04:24:07;;;;;;;4.60;4.20;;;;;;;17.02;84.93;101282.94;2045955;28;28878;-74
2022/08/03 04:25:16;;;;;;;4.97;4.40;;;;;;;17.23;84.11;101281.06;2039726;28;35302;-73
2022/08/03 04:26:21;;;;;;;5.80;4.43;;;;;;;17.58;82.97;101282.16;2046271;28;30520;-74
2022/08/03 04:27:30;;;;;;;8.05;3.97;;;;;;;18.00;81.43;101275.69;2046653;28;23578;-74
2022/08/03 04:28:33;;;;;;;6.38;4.55;;;;;;;18.44;79.48;101277.16;2047034;28;30587;-73
2022/08/03 04:29:40;;;;;;;4.43;3.90;;;;;;;18.83;77.53;101278.81;2040029;28;21758;-74
2022/08/03 04:30:49;;;;;;;5.95;4.30;;;;;;;19.24;75.43;101270.31;2040972;28;29835;-74
2022/08/03 04:31:54;;;;;;;4.80;4.05;;;;;;;19.72;73.90;101276.72;2040396;28;24429;-73
2022/08/03 04:32:57;;;;;;;4.80;4.30;;;;;;;20.16;71.63;101278.75;2040698;28;25571;-73
2022/08/03 04:33:59;;;;;;;4.97;4.15;;;;;;;20.44;70.26;101277.16;2039362;28;27717;-73
2022/08/03 04:35:01;;;;;;;5.18;3.55;;;;;;;20.81;68.63;101274.97;2047116;28;30656;-73
2022/08/03 04:36:07;;;;;;;4.72;3.60;;;;;;;21.25;66.27;101274.09;2046785;28;24641;-73
2022/08/03 04:37:13;;;;;;;5.25;3.88;;;;;;;21.51;65.58;101274.31;2040390;28;25378;-73
2022/08/03 04:38:18;;;;;;;5.65;3.35;;;;;;;21.76;63.09;101265.44;2046794;28;34432;-73
2022/08/03 04:39:25;;;;;;;8.82;4.40;;;;;;;22.16;63.08;101276.44;2046678;28;33999;-73
2022/08/03 04:40:32;;;;;;;5.30;3.70;;;;;;;22.61;60.18;101268.03;2046949;28;27341;-73
2022/08/03 04:41:35;;;;;;;6.82;3.90;;;;;;;22.75;61.29;101270.69;2047660;28;20149;-73
2022/08/03 04:42:58;;;;;;;4.70;3.60;;;;;;;23.04;60.23;101273.25;2047386;28;20051;-73
2022/08/03 04:44:01;;;;;;;3.78;3.47;;;;;;;23.38;57.41;101274.50;2046878;28;27754;-74
2022/08/03 04:45:04;;;;;;;4.78;3.97;;;;;;;23.46;57.66;101273.94;2039421;28;35994;-73
2022/08/03 04:46:07;;;;;;;5.38;3.33;;;;;;;23.93;57.35;101277.81;2046742;28;27100;-73
2022/08/03 04:47:09;;;;;;;4.75;4.13;;;;;;;23.72;56.02;101276.66;2047218;28;22685;-73
2022/08/03 04:48:14;;;;;;;5.65;4.10;;;;;;;23.84;56.45;101280.38;2039520;28;20044;-73
2022/08/03 04:49:17;;;;;;;5.78;3.50;;;;;;;24.28;54.56;101279.81;2047388;28;21249;-73
2022/08/03 04:50:20;;;;;;;5.68;3.80;;;;;;;24.23;53.89;101278.38;2046633;28;24705;-73
2022/08/03 04:51:39;;;;;;;4.72;3.55;;;;;;;24.80;52.34;101276.81;2047586;28;20134;-73
2022/08/03 04:52:43;;;;;;;6.13;3.83;;;;;;;25.01;53.55;101277.88;2046888;28;31151;-74
2022/08/03 04:53:45;;;;;;;6.47;3.75;;;;;;;25.45;52.07;101283.59;2047623;28;27992;-74
2022/08/03 04:54:48;;;;;;;4.43;3.58;;;;;;;25.64;51.97;101266.50;2047366;28;27348;-74
2022/08/03 04:55:51;;;;;;;3.92;3.45;;;;;;;25.88;50.51;101272.75;2047864;28;27565;-75
2022/08/03 04:56:53;;;;;;;5.60;3.38;;;;;;;26.06;50.31;101270.38;2047614;28;23688;-74
2022/08/03 04:57:55;;;;;;;4.72;3.47;;;;;;;26.00;49.51;101272.75;2047604;28;28734;-74
2022/08/03 04:58:57;;;;;;;5.22;4.13;;;;;;;26.28;49.52;101274.06;2054277;28;30992;-75
2022/08/03 04:59:59;;;;;;;6.82;3.95;;;;;;;26.11;49.86;101275.47;2055175;28;26085;-74
2022/08/03 05:01:03;;;;;;;4.85;3.97;;;;;;;26.53;49.38;101275.59;2046792;28;27655;-75
2022/08/03 05:02:05;;;;;;;5.75;3.75;;;;;;;26.16;48.94;101273.19;2046999;28;27964;-75
2022/08/03 05:03:07;;;;;;;5.47;3.55;;;;;;;26.33;49.33;101274.53;2038504;28;34318;-75
2022/08/03 05:04:22;;;;;;;3.88;3.25;;;;;;;26.39;49.46;101273.16;2046899;28;37324;-74
2022/08/03 05:05:24;;;;;;;8.25;3.83;;;;;;;26.45;48.89;101280.84;2047245;28;32158;-74
2022/08/03 05:06:26;;;;;;;4.40;3.58;;;;;;;26.33;48.67;101279.19;2047042;28;25750;-74
2022/08/03 05:07:28;;;;;;;7.15;4.03;;;;;;;26.76;47.22;101278.28;2046426;28;30967;-74
2022/08/03 05:08:37;;;;;;;4.10;3.70;;;;;;;26.71;46.80;101283.31;2047570;28;26925;-74
2022/08/03 05:09:47;;;;;;;5.47;3.85;;;;;;;26.90;47.52;101272.47;2047334;28;30088;-74
2022/08/03 05:10:50;;;;;;;4.85;3.25;;;;;;;27.12;46.88;101281.59;2046585;28;31616;-74
2022/08/03 05:11:52;;;;;;;3.97;3.40;;;;;;;27.19;45.76;101278.16;2046466;28;34488;-74
2022/08/03 05:12:54;;;;;;;4.50;4.05;;;;;;;27.58;46.51;101283.91;2046717;28;38331;-74
2022/08/03 05:13:56;;;;;;;7.00;3.80;;;;;;;27.79;45.89;101285.72;2047764;28;20825;-74
2022/08/03 05:14:59;;;;;;;4.43;3.60;;;;;;;27.65;44.77;101283.34;2047604;28;22023;-75
2022/08/03 05:16:02;;;;;;;3.60;3.35;;;;;;;27.79;44.64;101286.56;2047546;28;32652;-74
2022/08/03 05:17:07;;;;;;;5.80;3.90;;;;;;;27.98;44.79;101283.06;2046762;28;30743;-74
2022/08/03 05:18:09;;;;;;;5.85;3.80;;;;;;;28.03;45.33;101277.13;2038885;28;26721;-74